createdAt,value
2023-04-09T00:01:27.257Z,95898.66
2023-04-09T00:03:53.864Z,95890.78
2023-04-09T00:06:20.377Z,95893.00
2023-04-09T00:08:46.930Z,95896.38
2023-04-09T00:11:13.429Z,95884.09
2023-04-09T00:13:40.192Z,95881.94
2023-04-09T00:16:07.646Z,95880.31
2023-04-09T00:18:34.425Z,95886.94
2023-04-09T00:21:00.910Z,95888.38
2023-04-09T00:23:27.411Z,95894.47
2023-04-09T00:25:53.861Z,95884.75
2023-04-09T00:28:20.331Z,95886.50
2023-04-09T00:30:46.816Z,95881.13
2023-04-09T00:33:13.332Z,95882.13
2023-04-09T00:35:39.790Z,95890.78
2023-04-09T00:38:06.266Z,95894.16
2023-04-09T00:40:32.789Z,95883.94
2023-04-09T00:42:59.235Z,95885.34
2023-04-09T00:45:25.730Z,95888.91
2023-04-09T00:47:53.124Z,95888.66
2023-04-09T00:50:19.846Z,95884.31
2023-04-09T00:52:46.502Z,95892.41
2023-04-09T00:55:13.748Z,95886.09
2023-04-09T00:57:40.241Z,95881.72
2023-04-09T01:00:07.253Z,95879.94
2023-04-09T01:02:34.472Z,95880.94
2023-04-09T01:05:01.277Z,95875.53
2023-04-09T01:07:51.306Z,95867.50
2023-04-09T01:10:30.168Z,95868.97
2023-04-09T01:13:11.841Z,95869.47
2023-04-09T01:15:55.931Z,95873.66
2023-04-09T01:18:31.120Z,95870.91
2023-04-09T01:21:30.366Z,95871.94
2023-04-09T01:24:17.028Z,95879.97
2023-04-09T01:26:55.389Z,95870.75
2023-04-09T01:29:24.749Z,95878.06
2023-04-09T01:31:53.934Z,95881.59
2023-04-09T01:34:21.279Z,95875.22
2023-04-09T01:36:54.497Z,95880.88
2023-04-09T01:39:21.977Z,95871.66
2023-04-09T01:41:50.663Z,95878.59
2023-04-09T01:44:19.302Z,95872.66
2023-04-09T01:46:50.353Z,95879.44
2023-04-09T01:49:18.514Z,95874.69
2023-04-09T01:51:47.209Z,95883.56
2023-04-09T01:54:15.461Z,95875.66
2023-04-09T01:56:47.070Z,95884.88
2023-04-09T01:59:14.280Z,95883.75
2023-04-09T02:01:46.852Z,95876.97
2023-04-09T02:04:23.672Z,95890.31
2023-04-09T02:07:06.015Z,95885.19
2023-04-09T02:09:37.035Z,95891.28
2023-04-09T02:12:06.786Z,95889.44
2023-04-09T02:14:34.779Z,95887.78
2023-04-09T02:17:02.059Z,95878.25
2023-04-09T02:19:43.097Z,95882.03
2023-04-09T02:22:10.304Z,95893.22
2023-04-09T02:24:36.938Z,95889.09
2023-04-09T02:27:04.364Z,95891.63
2023-04-09T02:29:31.260Z,95892.78
2023-04-09T02:31:57.922Z,95890.56
2023-04-09T02:34:24.856Z,95890.88
2023-04-09T02:36:51.352Z,95892.75
2023-04-09T02:39:17.952Z,95889.75
2023-04-09T02:41:44.483Z,95894.63
2023-04-09T02:44:10.996Z,95891.47
2023-04-09T02:46:39.191Z,95891.22
2023-04-09T02:49:05.711Z,95892.09
2023-04-09T02:51:34.634Z,95886.03
2023-04-09T02:54:01.437Z,95892.50
2023-04-09T02:56:28.003Z,95889.94
2023-04-09T02:58:54.566Z,95891.44
2023-04-09T03:01:21.301Z,95883.34
2023-04-09T03:03:47.926Z,95885.19
2023-04-09T03:06:14.450Z,95888.81
2023-04-09T03:08:41.141Z,95884.91
2023-04-09T03:11:07.658Z,95880.41
2023-04-09T03:13:34.113Z,95887.38
2023-04-09T03:16:00.614Z,95881.38
2023-04-09T03:18:27.143Z,95878.81
2023-04-09T03:20:53.659Z,95879.66
2023-04-09T03:23:20.159Z,95881.06
2023-04-09T03:25:46.678Z,95881.06
2023-04-09T03:28:13.169Z,95874.31
2023-04-09T03:30:39.672Z,95874.00
2023-04-09T03:33:06.207Z,95876.13
2023-04-09T03:35:32.810Z,95883.84
2023-04-09T03:37:59.317Z,95875.28
2023-04-09T03:40:25.816Z,95876.34
2023-04-09T03:42:52.276Z,95875.91
2023-04-09T03:45:18.781Z,95870.66
2023-04-09T03:47:45.345Z,95882.03
2023-04-09T03:50:11.915Z,95882.38
2023-04-09T03:52:38.389Z,95875.72
2023-04-09T03:55:05.244Z,95871.72
2023-04-09T03:57:31.718Z,95872.78
2023-04-09T03:59:58.196Z,95878.00
2023-04-09T04:02:24.846Z,95874.91
2023-04-09T04:04:51.434Z,95875.25
2023-04-09T04:07:18.017Z,95872.22
2023-04-09T04:09:44.488Z,95876.84
2023-04-09T04:12:11.107Z,95869.53
2023-04-09T04:14:37.556Z,95875.34
2023-04-09T04:17:04.036Z,95877.00
2023-04-09T04:19:30.563Z,95877.03
2023-04-09T04:21:57.052Z,95874.22
2023-04-09T04:24:23.548Z,95880.31
2023-04-09T04:26:50.053Z,95876.56
2023-04-09T04:29:16.591Z,95877.78
2023-04-09T04:31:43.133Z,95887.28
2023-04-09T04:34:09.616Z,95890.16
2023-04-09T04:36:37.073Z,95881.94
2023-04-09T04:39:03.765Z,95884.06
2023-04-09T04:41:30.265Z,95886.56
2023-04-09T04:43:56.736Z,95882.66
2023-04-09T04:46:23.255Z,95887.47
2023-04-09T04:48:49.932Z,95892.84
2023-04-09T04:51:16.492Z,95893.50
2023-04-09T04:53:43.211Z,95903.41
2023-04-09T04:56:13.860Z,95907.03
2023-04-09T04:58:40.382Z,95902.31
2023-04-09T05:01:06.962Z,95904.44
2023-04-09T05:03:33.533Z,95900.00
2023-04-09T05:06:00.121Z,95913.47
2023-04-09T05:08:26.630Z,95909.84
2023-04-09T05:10:53.098Z,95916.47
2023-04-09T05:13:19.596Z,95909.41
2023-04-09T05:15:46.160Z,95902.78
2023-04-09T05:18:12.689Z,95913.63
2023-04-09T05:20:39.141Z,95903.03
2023-04-09T05:23:05.671Z,95913.03
2023-04-09T05:25:32.145Z,95915.38
2023-04-09T05:27:58.603Z,95919.63
2023-04-09T05:30:25.248Z,95921.59
2023-04-09T05:32:51.875Z,95919.31
2023-04-09T05:35:18.531Z,95923.06
2023-04-09T05:37:45.071Z,95924.88
2023-04-09T05:40:12.214Z,95922.53
2023-04-09T05:42:38.705Z,95928.63
2023-04-09T05:45:05.654Z,95927.59
2023-04-09T05:47:32.140Z,95931.78
2023-04-09T05:49:58.664Z,95930.06
2023-04-09T05:52:25.188Z,95923.84
2023-04-09T05:54:51.700Z,95919.63
2023-04-09T05:57:18.154Z,95931.78
2023-04-09T05:59:44.717Z,95934.38
2023-04-09T06:02:11.275Z,95939.28
2023-04-09T06:04:37.884Z,95943.94
2023-04-09T06:07:05.392Z,95946.03
2023-04-09T06:09:31.872Z,95940.81
2023-04-09T06:11:58.364Z,95947.13
2023-04-09T06:14:24.898Z,95942.56
2023-04-09T06:16:51.396Z,95942.66
2023-04-09T06:19:18.212Z,95952.25
2023-04-09T06:21:44.733Z,95953.88
2023-04-09T06:24:11.361Z,95947.69
2023-04-09T06:26:37.867Z,95962.69
2023-04-09T06:29:04.341Z,95956.97
2023-04-09T06:31:30.833Z,95959.97
2023-04-09T06:33:57.341Z,95961.19
2023-04-09T06:36:23.918Z,95950.84
2023-04-09T06:38:50.497Z,95955.78
2023-04-09T06:41:20.005Z,95963.66
2023-04-09T06:43:46.537Z,95962.38
2023-04-09T06:46:13.241Z,95968.28
2023-04-09T06:48:39.866Z,95960.59
2023-04-09T06:51:06.729Z,95960.13
2023-04-09T06:53:33.243Z,95964.47
2023-04-09T06:55:59.737Z,95962.69
2023-04-09T06:58:26.265Z,95961.31
2023-04-09T07:00:52.761Z,95962.47
2023-04-09T07:03:19.359Z,95963.16
2023-04-09T07:05:46.037Z,95964.81
2023-04-09T07:08:12.533Z,95966.47
2023-04-09T07:10:39.003Z,95966.13
2023-04-09T07:13:05.625Z,95965.41
2023-04-09T07:15:32.182Z,95959.72
2023-04-09T07:17:58.767Z,95968.59
2023-04-09T07:20:25.354Z,95971.38
2023-04-09T07:22:51.862Z,95965.41
2023-04-09T07:25:18.370Z,95971.34
2023-04-09T07:27:44.935Z,95967.38
2023-04-09T07:30:11.470Z,95970.91
2023-04-09T07:32:38.582Z,95975.66
2023-04-09T07:35:07.955Z,95975.03
2023-04-09T07:37:34.432Z,95973.31
2023-04-09T07:40:01.154Z,95978.88
2023-04-09T07:42:27.679Z,95979.13
2023-04-09T07:44:54.188Z,95982.94
2023-04-09T07:47:22.420Z,95978.88
2023-04-09T07:49:49.161Z,95985.47
2023-04-09T07:52:15.710Z,95982.69
2023-04-09T07:54:42.228Z,95980.69
2023-04-09T07:57:08.745Z,95974.78
2023-04-09T07:59:35.252Z,95979.88
2023-04-09T08:02:01.949Z,95977.25
2023-04-09T08:04:29.751Z,95971.50
2023-04-09T08:06:56.385Z,95973.34
2023-04-09T08:09:22.938Z,95984.63
2023-04-09T08:11:49.966Z,95983.38
2023-04-09T08:14:17.848Z,95985.69
2023-04-09T08:16:46.642Z,95986.66
2023-04-09T08:19:15.430Z,95994.09
2023-04-09T08:21:42.638Z,95994.72
2023-04-09T08:24:10.291Z,95996.88
2023-04-09T08:26:37.771Z,95999.31
2023-04-09T08:29:04.737Z,95997.84
2023-04-09T08:31:31.441Z,96010.34
2023-04-09T08:33:57.974Z,96011.63
2023-04-09T08:36:24.588Z,96008.78
2023-04-09T08:38:51.415Z,96007.25
2023-04-09T08:41:23.521Z,96002.31
2023-04-09T08:43:57.627Z,96001.84
2023-04-09T08:46:25.238Z,96004.00
2023-04-09T08:48:52.899Z,96008.06
2023-04-09T08:51:21.983Z,96004.41
2023-04-09T08:54:01.488Z,96005.44
2023-04-09T08:56:30.438Z,96008.06
2023-04-09T08:58:57.024Z,96010.31
2023-04-09T09:01:29.372Z,96009.38
2023-04-09T09:04:02.818Z,96018.78
2023-04-09T09:06:31.979Z,96013.47
2023-04-09T09:09:15.827Z,96028.44
2023-04-09T09:11:44.643Z,96020.94
2023-04-09T09:14:13.696Z,96017.47
2023-04-09T09:16:43.387Z,96021.94
2023-04-09T09:19:27.662Z,96018.72
2023-04-09T09:21:58.453Z,96017.59
2023-04-09T09:24:24.960Z,96013.59
2023-04-09T09:26:52.511Z,96000.47
2023-04-09T09:29:19.032Z,96011.56
2023-04-09T09:31:47.307Z,96015.25
2023-04-09T09:34:13.832Z,96014.31
2023-04-09T09:36:40.395Z,96011.53
2023-04-09T09:39:07.016Z,96000.47
2023-04-09T09:41:33.592Z,96010.06
2023-04-09T09:44:00.123Z,96007.78
2023-04-09T09:46:26.768Z,95999.69
2023-04-09T09:48:53.872Z,96000.84
2023-04-09T09:51:26.447Z,95995.41
2023-04-09T09:53:55.964Z,95986.34
2023-04-09T09:56:27.138Z,95983.06
2023-04-09T09:59:12.057Z,95998.34
2023-04-09T10:01:40.252Z,95996.91
2023-04-09T10:04:12.059Z,95990.63
2023-04-09T10:06:42.738Z,95987.66
2023-04-09T10:09:10.256Z,95985.34
2023-04-09T10:11:38.146Z,95971.19
2023-04-09T10:14:04.840Z,95983.72
2023-04-09T10:16:31.775Z,95979.75
2023-04-09T10:19:00.845Z,95975.41
2023-04-09T10:21:34.776Z,95978.28
2023-04-09T10:24:03.454Z,95980.69
2023-04-09T10:26:32.985Z,95973.47
2023-04-09T10:29:14.432Z,95975.97
2023-04-09T10:31:48.343Z,95985.34
2023-04-09T10:34:18.738Z,95980.25
2023-04-09T10:36:56.195Z,95973.16
2023-04-09T10:39:31.577Z,95975.97
2023-04-09T10:42:00.072Z,95974.66
2023-04-09T10:44:28.653Z,95972.84
2023-04-09T10:46:55.715Z,95970.19
2023-04-09T10:49:27.065Z,95969.22
2023-04-09T10:52:10.877Z,95965.91
2023-04-09T10:54:40.437Z,95964.09
2023-04-09T10:57:06.874Z,95959.31
2023-04-09T10:59:37.329Z,95968.50
2023-04-09T11:02:08.712Z,95962.59
2023-04-09T11:04:49.595Z,95961.97
2023-04-09T11:07:21.501Z,95957.53
2023-04-09T11:09:47.970Z,95952.09
2023-04-09T11:12:14.440Z,95949.13
2023-04-09T11:14:40.961Z,95948.13
2023-04-09T11:17:07.676Z,95946.94
2023-04-09T11:19:34.587Z,95945.28
2023-04-09T11:22:04.411Z,95934.91
2023-04-09T11:24:41.047Z,95942.38
2023-04-09T11:27:07.524Z,95936.94
2023-04-09T11:29:36.851Z,95935.25
2023-04-09T11:32:03.581Z,95932.94
2023-04-09T11:34:30.085Z,95935.13
2023-04-09T11:36:56.571Z,95926.38
2023-04-09T11:39:23.025Z,95939.41
2023-04-09T11:41:49.504Z,95935.59
2023-04-09T11:44:15.996Z,95924.03
2023-04-09T11:46:43.426Z,95924.34
2023-04-09T11:49:10.160Z,95924.94
2023-04-09T11:51:37.002Z,95923.16
2023-04-09T11:54:05.557Z,95927.53
2023-04-09T11:56:32.522Z,95919.56
2023-04-09T11:58:59.186Z,95918.88
2023-04-09T12:01:31.884Z,95916.53
2023-04-09T12:03:59.803Z,95916.88
2023-04-09T12:06:27.716Z,95909.88
2023-04-09T12:08:55.802Z,95912.94
2023-04-09T12:11:29.055Z,95911.81
2023-04-09T12:13:59.786Z,95905.09
2023-04-09T12:16:26.355Z,95904.47
2023-04-09T12:18:53.205Z,95908.00
2023-04-09T12:21:19.969Z,95906.41
2023-04-09T12:23:46.477Z,95909.75
2023-04-09T12:26:13.016Z,95905.91
2023-04-09T12:28:40.073Z,95904.38
2023-04-09T12:31:09.965Z,95898.16
2023-04-09T12:33:36.439Z,95904.22
2023-04-09T12:36:03.024Z,95895.81
2023-04-09T12:38:29.556Z,95898.56
2023-04-09T12:40:56.073Z,95895.66
2023-04-09T12:43:22.590Z,95894.75
2023-04-09T12:45:49.100Z,95896.00
2023-04-09T12:48:15.637Z,95889.81
2023-04-09T12:50:42.146Z,95889.81
2023-04-09T12:53:08.661Z,95884.19
2023-04-09T12:55:35.164Z,95885.78
2023-04-09T12:58:01.701Z,95885.31
2023-04-09T13:00:28.197Z,95886.03
2023-04-09T13:02:54.740Z,95884.59
2023-04-09T13:05:21.379Z,95873.91
2023-04-09T13:07:47.833Z,95873.91
2023-04-09T13:10:14.311Z,95872.06
2023-04-09T13:12:40.818Z,95868.81
2023-04-09T13:15:07.484Z,95872.19
2023-04-09T13:17:34.042Z,95869.78
2023-04-09T13:20:00.593Z,95864.63
2023-04-09T13:22:27.102Z,95868.19
2023-04-09T13:24:53.571Z,95853.53
2023-04-09T13:27:20.129Z,95852.78
2023-04-09T13:29:46.656Z,95849.34
2023-04-09T13:32:13.174Z,95858.06
2023-04-09T13:34:40.023Z,95852.66
2023-04-09T13:37:06.882Z,95844.84
2023-04-09T13:39:33.436Z,95851.41
2023-04-09T13:42:00.744Z,95849.94
2023-04-09T13:44:28.097Z,95850.59
2023-04-09T13:46:54.650Z,95851.19
2023-04-09T13:49:21.156Z,95841.56
2023-04-09T13:51:48.999Z,95845.44
2023-04-09T13:54:15.540Z,95839.28
2023-04-09T13:56:42.230Z,95833.03
2023-04-09T13:59:08.760Z,95829.69
2023-04-09T14:01:35.936Z,95825.75
2023-04-09T14:04:02.740Z,95827.81
2023-04-09T14:06:29.359Z,95820.03
2023-04-09T14:08:56.060Z,95818.19
2023-04-09T14:11:22.800Z,95818.00
2023-04-09T14:13:49.283Z,95816.88
2023-04-09T14:16:15.849Z,95813.56
2023-04-09T14:18:42.377Z,95811.00
2023-04-09T14:21:10.345Z,95809.50
2023-04-09T14:23:38.578Z,95805.66
2023-04-09T14:26:05.827Z,95807.94
2023-04-09T14:28:32.578Z,95803.56
2023-04-09T14:30:59.672Z,95802.72
2023-04-09T14:33:26.796Z,95797.53
2023-04-09T14:35:53.413Z,95800.69
2023-04-09T14:38:20.103Z,95792.69
2023-04-09T14:40:46.650Z,95795.19
2023-04-09T14:43:13.150Z,95799.59
2023-04-09T14:45:39.713Z,95791.63
2023-04-09T14:48:06.232Z,95790.75
2023-04-09T14:50:32.706Z,95797.78
2023-04-09T14:52:59.847Z,95794.78
2023-04-09T14:55:26.635Z,95796.16
2023-04-09T14:57:53.196Z,95807.09
2023-04-09T15:00:19.860Z,95797.50
2023-04-09T15:02:46.576Z,95781.06
2023-04-09T15:05:14.108Z,95787.16
2023-04-09T15:07:40.585Z,95794.59
2023-04-09T15:10:07.777Z,95791.84
2023-04-09T15:12:34.235Z,95793.47
2023-04-09T15:15:00.779Z,95791.47
2023-04-09T15:17:27.421Z,95794.44
2023-04-09T15:19:53.925Z,95786.94
2023-04-09T15:22:20.911Z,95793.56
2023-04-09T15:24:47.391Z,95785.28
2023-04-09T15:27:13.932Z,95776.50
2023-04-09T15:29:40.455Z,95775.03
2023-04-09T15:32:07.133Z,95773.56
2023-04-09T15:34:33.770Z,95773.81
2023-04-09T15:37:00.274Z,95781.13
2023-04-09T15:39:26.793Z,95779.88
2023-04-09T15:41:53.268Z,95777.06
2023-04-09T15:44:19.717Z,95769.06
2023-04-09T15:46:46.193Z,95778.75
2023-04-09T15:49:12.838Z,95780.88
2023-04-09T15:51:39.308Z,95778.28
2023-04-09T15:54:05.810Z,95778.69
2023-04-09T15:56:32.277Z,95780.94
2023-04-09T15:58:58.748Z,95777.63
2023-04-09T16:01:25.273Z,95774.94
2023-04-09T16:03:51.846Z,95777.19
2023-04-09T16:06:18.793Z,95782.97
2023-04-09T16:08:45.540Z,95775.44
2023-04-09T16:11:12.109Z,95777.00
2023-04-09T16:13:38.586Z,95781.94
2023-04-09T16:16:05.438Z,95772.13
2023-04-09T16:18:32.734Z,95775.09
2023-04-09T16:20:59.300Z,95778.47
2023-04-09T16:23:26.997Z,95772.81
2023-04-09T16:25:54.078Z,95780.50
2023-04-09T16:28:21.212Z,95779.25
2023-04-09T16:30:50.831Z,95782.81
2023-04-09T16:33:17.369Z,95785.19
2023-04-09T16:35:44.063Z,95791.66
2023-04-09T16:38:10.699Z,95788.75
2023-04-09T16:40:37.342Z,95786.19
2023-04-09T16:43:03.946Z,95792.09
2023-04-09T16:45:30.444Z,95783.25
2023-04-09T16:47:56.960Z,95783.00
2023-04-09T16:50:23.529Z,95777.78
2023-04-09T16:52:50.409Z,95781.75
2023-04-09T16:55:17.219Z,95782.50
2023-04-09T16:57:43.838Z,95783.63
2023-04-09T17:00:10.650Z,95774.47
2023-04-09T17:02:37.316Z,95788.25
2023-04-09T17:05:03.990Z,95780.53
2023-04-09T17:07:30.557Z,95779.94
2023-04-09T17:09:57.051Z,95789.09
2023-04-09T17:12:23.670Z,95785.63
2023-04-09T17:14:50.501Z,95785.63
2023-04-09T17:17:17.241Z,95786.81
2023-04-09T17:19:43.891Z,95785.03
2023-04-09T17:22:10.389Z,95788.13
2023-04-09T17:24:37.153Z,95786.91
2023-04-09T17:27:03.888Z,95793.84
2023-04-09T17:29:31.268Z,95796.13
2023-04-09T17:31:57.904Z,95795.94
2023-04-09T17:34:24.442Z,95793.88
2023-04-09T17:36:51.171Z,95799.69
2023-04-09T17:39:17.651Z,95796.75
2023-04-09T17:41:44.153Z,95796.53
2023-04-09T17:44:10.644Z,95801.81
2023-04-09T17:46:37.196Z,95796.06
2023-04-09T17:49:03.699Z,95809.28
2023-04-09T17:51:30.173Z,95804.94
2023-04-09T17:53:56.768Z,95812.22
2023-04-09T17:56:23.421Z,95816.75
2023-04-09T17:58:49.884Z,95819.19
2023-04-09T18:01:16.488Z,95815.97
2023-04-09T18:03:43.250Z,95828.25
2023-04-09T18:06:10.071Z,95836.41
2023-04-09T18:08:36.628Z,95821.66
2023-04-09T18:11:11.893Z,95824.91
2023-04-09T18:13:39.148Z,95833.47
2023-04-09T18:16:09.546Z,95830.03
2023-04-09T18:18:36.030Z,95828.69
2023-04-09T18:21:02.625Z,95831.84
2023-04-09T18:23:29.476Z,95839.72
2023-04-09T18:25:55.992Z,95842.59
2023-04-09T18:28:22.470Z,95845.50
2023-04-09T18:30:49.081Z,95847.44
2023-04-09T18:33:15.620Z,95844.81
2023-04-09T18:35:42.328Z,95852.75
2023-04-09T18:38:08.836Z,95861.09
2023-04-09T18:40:41.125Z,95860.34
2023-04-09T18:43:07.659Z,95857.78
2023-04-09T18:45:34.143Z,95866.53
2023-04-09T18:48:00.639Z,95868.28
2023-04-09T18:50:27.320Z,95880.13
2023-04-09T18:52:53.794Z,95876.00
2023-04-09T18:55:20.266Z,95878.09
2023-04-09T18:57:46.757Z,95873.22
2023-04-09T19:00:13.759Z,95878.50
2023-04-09T19:02:40.450Z,95884.47
2023-04-09T19:05:07.626Z,95892.19
2023-04-09T19:07:34.184Z,95888.66
2023-04-09T19:10:00.689Z,95893.91
2023-04-09T19:12:27.200Z,95892.91
2023-04-09T19:14:53.732Z,95902.13
2023-04-09T19:17:20.554Z,95899.28
2023-04-09T19:19:47.023Z,95903.69
2023-04-09T19:22:13.668Z,95906.13
2023-04-09T19:24:43.522Z,95902.78
2023-04-09T19:27:10.336Z,95911.25
2023-04-09T19:29:37.192Z,95916.09
2023-04-09T19:32:04.772Z,95910.25
2023-04-09T19:34:31.412Z,95916.22
2023-04-09T19:36:57.900Z,95921.06
2023-04-09T19:39:24.439Z,95924.41
2023-04-09T19:41:50.922Z,95921.41
2023-04-09T19:44:17.383Z,95921.41
2023-04-09T19:46:43.893Z,95919.91
2023-04-09T19:49:10.384Z,95922.66
2023-04-09T19:51:36.913Z,95922.31
2023-04-09T19:54:03.546Z,95922.88
2023-04-09T19:56:30.026Z,95918.91
2023-04-09T19:58:56.532Z,95936.16
2023-04-09T20:01:23.036Z,95928.38
2023-04-09T20:03:49.794Z,95926.13
2023-04-09T20:06:16.384Z,95924.44
2023-04-09T20:08:42.973Z,95923.63
2023-04-09T20:11:18.411Z,95923.69
2023-04-09T20:13:44.935Z,95923.03
2023-04-09T20:16:11.459Z,95929.59
2023-04-09T20:18:38.055Z,95934.88
2023-04-09T20:21:04.661Z,95927.41
2023-04-09T20:23:31.117Z,95926.06
2023-04-09T20:25:57.606Z,95918.03
2023-04-09T20:28:24.078Z,95921.31
2023-04-09T20:30:50.592Z,95925.72
2023-04-09T20:33:20.114Z,95915.78
2023-04-09T20:35:46.655Z,95919.38
2023-04-09T20:38:13.176Z,95917.63
2023-04-09T20:40:39.707Z,95921.00
2023-04-09T20:43:06.225Z,95919.38
2023-04-09T20:45:32.728Z,95924.94
2023-04-09T20:47:59.293Z,95926.63
2023-04-09T20:50:25.833Z,95923.34
2023-04-09T20:52:52.325Z,95926.19
2023-04-09T20:55:18.914Z,95915.59
2023-04-09T20:57:45.388Z,95920.91
2023-04-09T21:00:12.541Z,95920.28
2023-04-09T21:02:40.364Z,95923.81
2023-04-09T21:05:19.426Z,95924.44
2023-04-09T21:07:48.154Z,95926.41
2023-04-09T21:10:14.657Z,95925.03
2023-04-09T21:12:41.122Z,95927.69
2023-04-09T21:15:08.281Z,95938.53
2023-04-09T21:17:34.783Z,95936.81
2023-04-09T21:20:01.303Z,95935.53
2023-04-09T21:22:27.893Z,95924.94
2023-04-09T21:24:54.419Z,95919.25
2023-04-09T21:27:20.916Z,95926.28
2023-04-09T21:29:47.407Z,95931.59
2023-04-09T21:32:13.920Z,95932.34
2023-04-09T21:34:40.444Z,95929.44
2023-04-09T21:37:06.909Z,95927.69
2023-04-09T21:39:33.378Z,95933.19
2023-04-09T21:41:59.835Z,95928.47
2023-04-09T21:44:26.323Z,95930.91
2023-04-09T21:46:52.813Z,95928.69
2023-04-09T21:49:19.292Z,95923.59
2023-04-09T21:51:46.080Z,95920.47
2023-04-09T21:54:12.567Z,95926.13
2023-04-09T21:56:39.024Z,95924.78
2023-04-09T21:59:05.666Z,95929.56
2023-04-09T22:01:32.285Z,95937.28
2023-04-09T22:03:58.866Z,95924.59
2023-04-09T22:06:26.303Z,95926.78
2023-04-09T22:08:56.097Z,95928.44
2023-04-09T22:11:25.260Z,95931.59
2023-04-09T22:13:51.875Z,95932.25
2023-04-09T22:16:18.418Z,95932.66
2023-04-09T22:18:45.242Z,95931.25
2023-04-09T22:21:16.051Z,95934.28
2023-04-09T22:23:43.430Z,95937.56
2023-04-09T22:26:10.143Z,95942.50
2023-04-09T22:28:36.668Z,95945.19
2023-04-09T22:31:03.185Z,95950.13
2023-04-09T22:33:29.661Z,95948.84
2023-04-09T22:35:56.147Z,95940.19
2023-04-09T22:38:22.661Z,95946.47
2023-04-09T22:40:49.500Z,95942.84
2023-04-09T22:43:17.265Z,95946.59
2023-04-09T22:45:50.655Z,95940.94
2023-04-09T22:48:17.651Z,95942.25
2023-04-09T22:50:44.109Z,95945.06
2023-04-09T22:53:10.573Z,95943.22
2023-04-09T22:55:37.016Z,95939.41
2023-04-09T22:58:03.801Z,95941.91
2023-04-09T23:00:30.320Z,95952.53
2023-04-09T23:02:56.962Z,95952.53
2023-04-09T23:05:23.489Z,95948.44
2023-04-09T23:07:49.978Z,95951.78
2023-04-09T23:10:16.569Z,95950.47
2023-04-09T23:12:43.460Z,95955.91
2023-04-09T23:15:10.407Z,95950.00
2023-04-09T23:17:36.939Z,95958.16
2023-04-09T23:20:03.570Z,95960.59
2023-04-09T23:22:30.069Z,95960.28
2023-04-09T23:24:56.539Z,95954.34
2023-04-09T23:27:23.038Z,95961.59
2023-04-09T23:29:49.498Z,95957.66
2023-04-09T23:32:15.984Z,95956.19
2023-04-09T23:34:42.457Z,95959.94
2023-04-09T23:37:08.909Z,95961.59
2023-04-09T23:39:35.395Z,95958.34
2023-04-09T23:42:01.946Z,95957.31
2023-04-09T23:44:28.477Z,95954.53
2023-04-09T23:46:55.125Z,95961.16
2023-04-09T23:49:21.708Z,95961.28
2023-04-09T23:51:50.353Z,95957.97
2023-04-09T23:54:16.819Z,95962.53
2023-04-09T23:56:43.288Z,95956.78
2023-04-09T23:59:09.764Z,95963.09
